Airfield :
LOGIN :

Register | Disclaimer

   EN    FR    IT 

 










Legend :    VFR   Marginal VFR   IFR   Intensive IFR   Very Intensive IFR
Visi :
Ceiling :
>= 8 km
>= 3000ft
5 to 8 km
1000 to 3000 ft
1500m to 5 km
500 to 1000 ft
800 to 1500m
200 to 500 ft
< 800m
< 200 ft
Symbols :   Thunderstorms  Fog  Heavy snow  Heavy precipitations  Wind > 20 kt
SIGMETs :     Misc.  Thunderstorms  Icing  Turbulence  Mountain Waves  Volcanic Ashes






- Airport Elevation : 12 ft
- IATA code : CQF


LFAC - Calais

CURRENT METAR :
  • 231600Z AUTO 34010KT 9999 BKN016 OVC150 04/01 Q0994

EXPIRED METARs :
  • 231530Z AUTO 34009KT 9999 FEW018 OVC140 04/01 Q0994
  • 231500Z AUTO 34009KT 9999 SCT018 BKN140 04/02 Q0994
  • 231430Z AUTO 34009KT 9999 SCT022 BKN030 BKN035 05/02 Q0994
  • 231400Z AUTO 36005KT 350V050 9999 FEW022 BKN031 BKN088 05/02 Q0994
  • 231330Z AUTO 01004KT 350V060 9999 BKN021 BKN028 BKN088 05/02 Q0994

TAF N/A
ATIS : +33 3 21 00 11 14



MET'MAP, your aeronautical weather chart ! - Copyright ORBIFLY December 2007 - Disclaimer

ORBIFLY MET'MAP TEAM :

Programming & Development : Alexandra Zaïnal
Concept & original design : Baudouin d'Aumeries
Assistance for programming : Marc-Olivier Méhu
Technical & hardware support : Manuel Goepfert

Contact : metmap@orbifly.com




SOURCES & CREDITS :

   NOAA